sensor_id;sensor_type;location;lat;lon;timestamp;temperature;humidity
3996;DHT22;2012;49.794;9.722;2023-02-28T00:00:36;1.10;99.90
3996;DHT22;2012;49.794;9.722;2023-02-28T00:03:03;1.10;99.90
3996;DHT22;2012;49.794;9.722;2023-02-28T00:05:30;1.00;99.90
3996;DHT22;2012;49.794;9.722;2023-02-28T00:07:57;0.90;99.90
3996;DHT22;2012;49.794;9.722;2023-02-28T00:10:27;1.00;99.90
3996;DHT22;2012;49.794;9.722;2023-02-28T00:12:56;0.90;99.90
3996;DHT22;2012;49.794;9.722;2023-02-28T00:15:25;1.10;99.90
3996;DHT22;2012;49.794;9.722;2023-02-28T00:17:53;1.10;99.90
3996;DHT22;2012;49.794;9.722;2023-02-28T00:20:20;1.10;99.90
3996;DHT22;2012;49.794;9.722;2023-02-28T00:22:49;1.10;99.90
3996;DHT22;2012;49.794;9.722;2023-02-28T00:25:19;1.10;99.90
3996;DHT22;2012;49.794;9.722;2023-02-28T00:27:46;1.10;99.90
3996;DHT22;2012;49.794;9.722;2023-02-28T00:30:16;1.00;99.90
3996;DHT22;2012;49.794;9.722;2023-02-28T00:32:43;0.90;99.90
3996;DHT22;2012;49.794;9.722;2023-02-28T00:35:11;0.90;99.90
3996;DHT22;2012;49.794;9.722;2023-02-28T00:37:38;1.00;99.90
3996;DHT22;2012;49.794;9.722;2023-02-28T00:40:06;0.90;99.90
3996;DHT22;2012;49.794;9.722;2023-02-28T00:42:34;0.90;99.90
3996;DHT22;2012;49.794;9.722;2023-02-28T00:45:02;0.90;99.90
3996;DHT22;2012;49.794;9.722;2023-02-28T00:47:31;0.90;99.90
3996;DHT22;2012;49.794;9.722;2023-02-28T00:49:59;0.90;99.90
3996;DHT22;2012;49.794;9.722;2023-02-28T00:52:26;0.80;99.90
3996;DHT22;2012;49.794;9.722;2023-02-28T00:54:53;0.80;99.90
3996;DHT22;2012;49.794;9.722;2023-02-28T00:57:20;0.90;99.90
3996;DHT22;2012;49.794;9.722;2023-02-28T00:59:47;0.90;99.90
3996;DHT22;2012;49.794;9.722;2023-02-28T01:02:14;0.80;99.90
3996;DHT22;2012;49.794;9.722;2023-02-28T01:04:41;0.70;99.90
3996;DHT22;2012;49.794;9.722;2023-02-28T01:07:08;0.70;99.90
3996;DHT22;2012;49.794;9.722;2023-02-28T01:09:34;0.70;99.90
3996;DHT22;2012;49.794;9.722;2023-02-28T01:12:01;0.70;99.90
3996;DHT22;2012;49.794;9.722;2023-02-28T01:14:28;0.60;99.90
3996;DHT22;2012;49.794;9.722;2023-02-28T01:16:55;0.70;99.90
3996;DHT22;2012;49.794;9.722;2023-02-28T01:19:21;0.70;99.90
3996;DHT22;2012;49.794;9.722;2023-02-28T01:21:48;0.70;99.90
3996;DHT22;2012;49.794;9.722;2023-02-28T01:24:15;0.70;99.90
3996;DHT22;2012;49.794;9.722;2023-02-28T01:26:41;0.80;99.90
3996;DHT22;2012;49.794;9.722;2023-02-28T01:29:08;0.80;99.90
3996;DHT22;2012;49.794;9.722;2023-02-28T01:31:35;0.70;99.90
3996;DHT22;2012;49.794;9.722;2023-02-28T01:34:02;0.70;99.90
3996;DHT22;2012;49.794;9.722;2023-02-28T01:36:29;0.80;99.90
3996;DHT22;2012;49.794;9.722;2023-02-28T01:38:56;0.70;99.90
3996;DHT22;2012;49.794;9.722;2023-02-28T01:41:26;0.70;99.90
3996;DHT22;2012;49.794;9.722;2023-02-28T01:46:25;0.70;99.90
3996;DHT22;2012;49.794;9.722;2023-02-28T01:49:29;0.60;99.90
3996;DHT22;2012;49.794;9.722;2023-02-28T01:51:50;0.40;99.90
3996;DHT22;2012;49.794;9.722;2023-02-28T01:54:24;0.50;99.90
3996;DHT22;2012;49.794;9.722;2023-02-28T01:57:05;0.50;99.90
3996;DHT22;2012;49.794;9.722;2023-02-28T01:59:38;0.50;99.90
3996;DHT22;2012;49.794;9.722;2023-02-28T02:02:07;0.60;99.90
3996;DHT22;2012;49.794;9.722;2023-02-28T02:04:48;0.50;99.90
3996;DHT22;2012;49.794;9.722;2023-02-28T02:07:16;0.50;99.90
3996;DHT22;2012;49.794;9.722;2023-02-28T02:09:43;0.60;99.90
3996;DHT22;2012;49.794;9.722;2023-02-28T02:12:32;0.50;99.90
3996;DHT22;2012;49.794;9.722;2023-02-28T02:15:16;0.50;99.90
3996;DHT22;2012;49.794;9.722;2023-02-28T02:17:46;0.60;99.90
3996;DHT22;2012;49.794;9.722;2023-02-28T02:23:03;0.40;99.90
3996;DHT22;2012;49.794;9.722;2023-02-28T02:26:06;0.30;99.90
3996;DHT22;2012;49.794;9.722;2023-02-28T02:34:29;0.40;99.90
3996;DHT22;2012;49.794;9.722;2023-02-28T02:37:24;0.40;99.90
3996;DHT22;2012;49.794;9.722;2023-02-28T02:45:26;0.30;99.90
3996;DHT22;2012;49.794;9.722;2023-02-28T02:47:56;0.40;99.90
3996;DHT22;2012;49.794;9.722;2023-02-28T02:50:31;0.30;99.90
3996;DHT22;2012;49.794;9.722;2023-02-28T02:53:01;0.30;99.90
3996;DHT22;2012;49.794;9.722;2023-02-28T02:55:31;0.30;99.90
3996;DHT22;2012;49.794;9.722;2023-02-28T02:58:03;0.30;99.90
3996;DHT22;2012;49.794;9.722;2023-02-28T03:00:38;0.30;99.90
3996;DHT22;2012;49.794;9.722;2023-02-28T03:03:07;0.30;99.90
3996;DHT22;2012;49.794;9.722;2023-02-28T03:05:44;0.30;99.90
3996;DHT22;2012;49.794;9.722;2023-02-28T03:08:12;0.30;99.90
3996;DHT22;2012;49.794;9.722;2023-02-28T03:10:41;0.30;99.90
3996;DHT22;2012;49.794;9.722;2023-02-28T03:13:34;0.30;99.90
3996;DHT22;2012;49.794;9.722;2023-02-28T03:16:42;0.30;99.90
3996;DHT22;2012;49.794;9.722;2023-02-28T03:28:11;0.20;99.90
3996;DHT22;2012;49.794;9.722;2023-02-28T03:30:51;0.20;99.90
3996;DHT22;2012;49.794;9.722;2023-02-28T03:33:24;0.10;99.90
3996;DHT22;2012;49.794;9.722;2023-02-28T03:35:57;0.10;99.90
3996;DHT22;2012;49.794;9.722;2023-02-28T03:38:35;0.10;99.90
3996;DHT22;2012;49.794;9.722;2023-02-28T03:43:43;0.10;99.90
3996;DHT22;2012;49.794;9.722;2023-02-28T03:46:15;0.00;99.90
3996;DHT22;2012;49.794;9.722;2023-02-28T03:48:51;0.00;99.90
3996;DHT22;2012;49.794;9.722;2023-02-28T03:51:22;0.00;99.90
3996;DHT22;2012;49.794;9.722;2023-02-28T03:53:56;0.00;99.90
3996;DHT22;2012;49.794;9.722;2023-02-28T03:56:32;-0.10;99.90
3996;DHT22;2012;49.794;9.722;2023-02-28T03:59:19;-0.10;99.90
3996;DHT22;2012;49.794;9.722;2023-02-28T04:01:48;0.00;99.90
3996;DHT22;2012;49.794;9.722;2023-02-28T04:04:15;0.00;99.90
3996;DHT22;2012;49.794;9.722;2023-02-28T04:06:44;0.00;99.90
3996;DHT22;2012;49.794;9.722;2023-02-28T04:09:13;0.00;99.90
3996;DHT22;2012;49.794;9.722;2023-02-28T04:11:44;0.00;99.90
3996;DHT22;2012;49.794;9.722;2023-02-28T04:14:11;0.00;99.90
3996;DHT22;2012;49.794;9.722;2023-02-28T04:16:40;0.00;99.90
3996;DHT22;2012;49.794;9.722;2023-02-28T04:19:09;0.00;99.90
3996;DHT22;2012;49.794;9.722;2023-02-28T04:21:39;0.00;99.90
3996;DHT22;2012;49.794;9.722;2023-02-28T04:24:08;-0.10;99.90
3996;DHT22;2012;49.794;9.722;2023-02-28T04:26:36;-0.10;99.90
3996;DHT22;2012;49.794;9.722;2023-02-28T04:29:06;0.00;99.90
3996;DHT22;2012;49.794;9.722;2023-02-28T04:31:33;-0.10;99.90
3996;DHT22;2012;49.794;9.722;2023-02-28T04:34:00;-0.10;99.90
3996;DHT22;2012;49.794;9.722;2023-02-28T04:36:28;-0.10;99.90
3996;DHT22;2012;49.794;9.722;2023-02-28T04:38:55;-0.20;99.90
3996;DHT22;2012;49.794;9.722;2023-02-28T04:41:22;-0.20;99.90
3996;DHT22;2012;49.794;9.722;2023-02-28T04:43:51;-0.20;99.90
3996;DHT22;2012;49.794;9.722;2023-02-28T04:46:19;-0.20;99.90
3996;DHT22;2012;49.794;9.722;2023-02-28T04:48:46;-0.20;99.90
3996;DHT22;2012;49.794;9.722;2023-02-28T04:51:16;-0.10;99.90
3996;DHT22;2012;49.794;9.722;2023-02-28T04:53:43;-0.20;99.90
3996;DHT22;2012;49.794;9.722;2023-02-28T04:56:14;-0.20;99.90
3996;DHT22;2012;49.794;9.722;2023-02-28T04:58:41;-0.20;99.90
3996;DHT22;2012;49.794;9.722;2023-02-28T05:01:26;-0.20;99.90
3996;DHT22;2012;49.794;9.722;2023-02-28T05:03:56;-0.10;99.90
3996;DHT22;2012;49.794;9.722;2023-02-28T05:06:26;-0.10;99.90
3996;DHT22;2012;49.794;9.722;2023-02-28T05:08:53;-0.10;99.90
3996;DHT22;2012;49.794;9.722;2023-02-28T05:11:26;-0.10;99.90
3996;DHT22;2012;49.794;9.722;2023-02-28T05:13:56;-0.10;99.90
3996;DHT22;2012;49.794;9.722;2023-02-28T05:16:22;-0.10;99.90
3996;DHT22;2012;49.794;9.722;2023-02-28T05:18:49;-0.20;99.90
3996;DHT22;2012;49.794;9.722;2023-02-28T05:23:50;-0.10;99.90
3996;DHT22;2012;49.794;9.722;2023-02-28T05:26:17;-0.20;99.90
3996;DHT22;2012;49.794;9.722;2023-02-28T05:28:44;-0.10;99.90
3996;DHT22;2012;49.794;9.722;2023-02-28T05:31:11;-0.20;99.90
3996;DHT22;2012;49.794;9.722;2023-02-28T05:33:38;-0.30;99.90
3996;DHT22;2012;49.794;9.722;2023-02-28T05:36:05;-0.30;99.90
3996;DHT22;2012;49.794;9.722;2023-02-28T05:38:32;-0.40;99.90
3996;DHT22;2012;49.794;9.722;2023-02-28T05:40:59;-0.30;99.90
3996;DHT22;2012;49.794;9.722;2023-02-28T05:43:26;-0.20;99.90
3996;DHT22;2012;49.794;9.722;2023-02-28T05:45:53;-0.20;99.90
3996;DHT22;2012;49.794;9.722;2023-02-28T05:48:19;-0.20;99.90
3996;DHT22;2012;49.794;9.722;2023-02-28T05:50:46;-0.30;99.90
3996;DHT22;2012;49.794;9.722;2023-02-28T05:53:13;-0.30;99.90
3996;DHT22;2012;49.794;9.722;2023-02-28T05:55:40;-0.30;99.90
3996;DHT22;2012;49.794;9.722;2023-02-28T05:58:07;-0.20;99.90
3996;DHT22;2012;49.794;9.722;2023-02-28T06:00:34;-0.20;99.90
3996;DHT22;2012;49.794;9.722;2023-02-28T06:03:00;-0.40;99.90
3996;DHT22;2012;49.794;9.722;2023-02-28T06:05:28;-0.30;99.90
3996;DHT22;2012;49.794;9.722;2023-02-28T06:07:55;-0.30;99.90
3996;DHT22;2012;49.794;9.722;2023-02-28T06:10:22;-0.30;99.90
3996;DHT22;2012;49.794;9.722;2023-02-28T06:12:49;-0.20;99.90
3996;DHT22;2012;49.794;9.722;2023-02-28T06:15:16;-0.30;99.90
3996;DHT22;2012;49.794;9.722;2023-02-28T06:17:43;-0.30;99.90
3996;DHT22;2012;49.794;9.722;2023-02-28T06:20:11;-0.30;99.90
3996;DHT22;2012;49.794;9.722;2023-02-28T06:22:39;-0.30;99.90
3996;DHT22;2012;49.794;9.722;2023-02-28T06:25:06;-0.30;99.90
3996;DHT22;2012;49.794;9.722;2023-02-28T06:27:33;-0.40;99.90
3996;DHT22;2012;49.794;9.722;2023-02-28T06:30:00;-0.30;99.90
3996;DHT22;2012;49.794;9.722;2023-02-28T06:32:27;-0.50;99.90
3996;DHT22;2012;49.794;9.722;2023-02-28T06:34:54;-0.40;99.90
3996;DHT22;2012;49.794;9.722;2023-02-28T06:37:23;-0.40;99.90
3996;DHT22;2012;49.794;9.722;2023-02-28T06:39:53;-0.30;99.90
3996;DHT22;2012;49.794;9.722;2023-02-28T06:42:23;-0.40;99.90
3996;DHT22;2012;49.794;9.722;2023-02-28T06:44:55;-0.30;99.90
3996;DHT22;2012;49.794;9.722;2023-02-28T06:47:23;-0.20;99.90
3996;DHT22;2012;49.794;9.722;2023-02-28T06:49:50;-0.10;99.90
3996;DHT22;2012;49.794;9.722;2023-02-28T06:52:16;0.50;99.90
3996;DHT22;2012;49.794;9.722;2023-02-28T06:54:43;2.20;99.90
3996;DHT22;2012;49.794;9.722;2023-02-28T06:57:10;2.80;99.90
3996;DHT22;2012;49.794;9.722;2023-02-28T06:59:36;2.50;99.90
3996;DHT22;2012;49.794;9.722;2023-02-28T07:02:03;2.00;99.90
3996;DHT22;2012;49.794;9.722;2023-02-28T07:04:32;1.80;99.90
3996;DHT22;2012;49.794;9.722;2023-02-28T07:06:59;2.30;99.90
3996;DHT22;2012;49.794;9.722;2023-02-28T07:09:26;2.50;99.90
3996;DHT22;2012;49.794;9.722;2023-02-28T07:11:56;2.60;99.90
3996;DHT22;2012;49.794;9.722;2023-02-28T07:14:23;2.50;99.90
3996;DHT22;2012;49.794;9.722;2023-02-28T07:16:50;2.30;99.90
3996;DHT22;2012;49.794;9.722;2023-02-28T07:19:16;2.20;99.90
3996;DHT22;2012;49.794;9.722;2023-02-28T07:21:43;2.20;99.90
3996;DHT22;2012;49.794;9.722;2023-02-28T07:24:10;2.20;99.90
3996;DHT22;2012;49.794;9.722;2023-02-28T07:26:37;2.30;99.90
3996;DHT22;2012;49.794;9.722;2023-02-28T07:29:03;1.50;99.90
3996;DHT22;2012;49.794;9.722;2023-02-28T07:31:30;0.90;99.90
3996;DHT22;2012;49.794;9.722;2023-02-28T07:33:57;0.40;99.90
3996;DHT22;2012;49.794;9.722;2023-02-28T07:36:24;0.30;99.90
3996;DHT22;2012;49.794;9.722;2023-02-28T07:38:51;0.30;99.90
3996;DHT22;2012;49.794;9.722;2023-02-28T07:41:20;0.30;99.90
3996;DHT22;2012;49.794;9.722;2023-02-28T07:43:47;0.40;99.90
3996;DHT22;2012;49.794;9.722;2023-02-28T07:46:16;0.20;99.90
3996;DHT22;2012;49.794;9.722;2023-02-28T07:48:43;0.20;99.90
3996;DHT22;2012;49.794;9.722;2023-02-28T07:51:10;0.00;99.90
3996;DHT22;2012;49.794;9.722;2023-02-28T07:53:37;0.10;99.90
3996;DHT22;2012;49.794;9.722;2023-02-28T07:56:04;0.20;99.90
3996;DHT22;2012;49.794;9.722;2023-02-28T07:58:31;-0.10;99.90
3996;DHT22;2012;49.794;9.722;2023-02-28T08:01:05;0.20;99.90
3996;DHT22;2012;49.794;9.722;2023-02-28T08:03:33;0.10;99.90
3996;DHT22;2012;49.794;9.722;2023-02-28T08:06:00;0.30;99.90
3996;DHT22;2012;49.794;9.722;2023-02-28T08:08:28;0.30;99.90
3996;DHT22;2012;49.794;9.722;2023-02-28T08:11:02;0.50;99.90
3996;DHT22;2012;49.794;9.722;2023-02-28T08:13:30;0.60;99.90
3996;DHT22;2012;49.794;9.722;2023-02-28T08:15:57;0.80;99.90
3996;DHT22;2012;49.794;9.722;2023-02-28T08:18:24;0.60;99.90
3996;DHT22;2012;49.794;9.722;2023-02-28T08:20:51;0.60;99.90
3996;DHT22;2012;49.794;9.722;2023-02-28T08:23:17;0.70;99.90
3996;DHT22;2012;49.794;9.722;2023-02-28T08:25:44;0.70;99.90
3996;DHT22;2012;49.794;9.722;2023-02-28T08:28:11;0.80;99.90
3996;DHT22;2012;49.794;9.722;2023-02-28T08:30:38;0.90;99.90
3996;DHT22;2012;49.794;9.722;2023-02-28T08:33:07;1.10;99.90
3996;DHT22;2012;49.794;9.722;2023-02-28T08:35:36;1.40;99.90
3996;DHT22;2012;49.794;9.722;2023-02-28T08:38:03;1.30;99.90
3996;DHT22;2012;49.794;9.722;2023-02-28T08:40:30;1.30;99.90
3996;DHT22;2012;49.794;9.722;2023-02-28T08:42:57;1.30;99.90
3996;DHT22;2012;49.794;9.722;2023-02-28T08:45:24;1.40;99.90
3996;DHT22;2012;49.794;9.722;2023-02-28T08:47:51;1.50;99.90
3996;DHT22;2012;49.794;9.722;2023-02-28T08:50:21;1.60;99.90
3996;DHT22;2012;49.794;9.722;2023-02-28T08:52:48;1.70;99.90
3996;DHT22;2012;49.794;9.722;2023-02-28T08:55:15;1.90;99.90
3996;DHT22;2012;49.794;9.722;2023-02-28T08:57:42;1.80;99.90
3996;DHT22;2012;49.794;9.722;2023-02-28T09:00:09;1.90;99.90
3996;DHT22;2012;49.794;9.722;2023-02-28T09:02:40;2.00;99.90
3996;DHT22;2012;49.794;9.722;2023-02-28T09:05:08;2.00;99.90
3996;DHT22;2012;49.794;9.722;2023-02-28T09:07:34;2.30;99.90
3996;DHT22;2012;49.794;9.722;2023-02-28T09:10:01;2.50;99.90
3996;DHT22;2012;49.794;9.722;2023-02-28T09:12:33;2.50;99.90
3996;DHT22;2012;49.794;9.722;2023-02-28T09:15:01;2.40;99.90
3996;DHT22;2012;49.794;9.722;2023-02-28T09:17:28;2.50;99.90
3996;DHT22;2012;49.794;9.722;2023-02-28T09:19:57;2.60;99.90
3996;DHT22;2012;49.794;9.722;2023-02-28T09:22:24;2.60;99.90
3996;DHT22;2012;49.794;9.722;2023-02-28T09:24:51;2.70;99.90
3996;DHT22;2012;49.794;9.722;2023-02-28T09:27:17;2.80;99.90
3996;DHT22;2012;49.794;9.722;2023-02-28T09:29:44;2.90;99.90
3996;DHT22;2012;49.794;9.722;2023-02-28T09:32:11;3.20;99.90
3996;DHT22;2012;49.794;9.722;2023-02-28T09:34:37;3.20;99.90
3996;DHT22;2012;49.794;9.722;2023-02-28T09:37:04;3.30;99.90
3996;DHT22;2012;49.794;9.722;2023-02-28T09:39:31;3.20;99.90
3996;DHT22;2012;49.794;9.722;2023-02-28T09:41:58;3.20;99.90
3996;DHT22;2012;49.794;9.722;2023-02-28T09:44:30;3.20;99.90
3996;DHT22;2012;49.794;9.722;2023-02-28T09:47:01;3.50;99.90
3996;DHT22;2012;49.794;9.722;2023-02-28T09:49:42;3.50;99.90
3996;DHT22;2012;49.794;9.722;2023-02-28T09:52:19;3.50;99.90
3996;DHT22;2012;49.794;9.722;2023-02-28T09:54:46;3.50;99.90
3996;DHT22;2012;49.794;9.722;2023-02-28T10:00:13;3.40;99.90
3996;DHT22;2012;49.794;9.722;2023-02-28T10:05:23;3.40;99.90
3996;DHT22;2012;49.794;9.722;2023-02-28T10:10:41;3.20;99.90
3996;DHT22;2012;49.794;9.722;2023-02-28T10:13:29;3.10;99.90
3996;DHT22;2012;49.794;9.722;2023-02-28T10:18:47;3.20;99.90
3996;DHT22;2012;49.794;9.722;2023-02-28T10:21:21;3.10;99.90
3996;DHT22;2012;49.794;9.722;2023-02-28T10:23:48;3.10;99.90
3996;DHT22;2012;49.794;9.722;2023-02-28T10:26:17;3.20;99.90
3996;DHT22;2012;49.794;9.722;2023-02-28T10:28:44;3.30;99.90
3996;DHT22;2012;49.794;9.722;2023-02-28T10:31:17;3.60;99.90
3996;DHT22;2012;49.794;9.722;2023-02-28T10:33:45;3.70;99.90
3996;DHT22;2012;49.794;9.722;2023-02-28T10:36:16;3.50;99.90
3996;DHT22;2012;49.794;9.722;2023-02-28T10:38:46;3.40;99.90
3996;DHT22;2012;49.794;9.722;2023-02-28T10:41:15;3.20;99.90
3996;DHT22;2012;49.794;9.722;2023-02-28T10:43:45;3.10;99.90
3996;DHT22;2012;49.794;9.722;2023-02-28T10:46:17;3.30;99.90
3996;DHT22;2012;49.794;9.722;2023-02-28T10:51:36;3.70;99.90
3996;DHT22;2012;49.794;9.722;2023-02-28T10:54:04;3.60;99.90
3996;DHT22;2012;49.794;9.722;2023-02-28T10:56:32;3.90;99.90
3996;DHT22;2012;49.794;9.722;2023-02-28T10:59:24;3.90;99.90
3996;DHT22;2012;49.794;9.722;2023-02-28T11:01:52;3.70;99.90
3996;DHT22;2012;49.794;9.722;2023-02-28T11:06:59;4.00;99.90
3996;DHT22;2012;49.794;9.722;2023-02-28T11:09:38;3.80;99.90
3996;DHT22;2012;49.794;9.722;2023-02-28T11:12:10;3.80;99.90
3996;DHT22;2012;49.794;9.722;2023-02-28T11:15:04;3.70;99.90
3996;DHT22;2012;49.794;9.722;2023-02-28T11:17:32;3.90;99.90
3996;DHT22;2012;49.794;9.722;2023-02-28T11:20:02;4.00;99.90
3996;DHT22;2012;49.794;9.722;2023-02-28T11:22:35;3.90;99.90
3996;DHT22;2012;49.794;9.722;2023-02-28T11:25:22;4.00;99.90
3996;DHT22;2012;49.794;9.722;2023-02-28T11:28:00;4.00;99.90
3996;DHT22;2012;49.794;9.722;2023-02-28T11:30:32;3.90;99.90
3996;DHT22;2012;49.794;9.722;2023-02-28T11:33:14;4.00;99.90
3996;DHT22;2012;49.794;9.722;2023-02-28T11:35:45;4.00;99.90
3996;DHT22;2012;49.794;9.722;2023-02-28T11:38:15;4.30;99.90
3996;DHT22;2012;49.794;9.722;2023-02-28T11:46:00;3.90;99.10
3996;DHT22;2012;49.794;9.722;2023-02-28T11:48:51;4.10;99.90
3996;DHT22;2012;49.794;9.722;2023-02-28T11:51:36;4.20;99.90
3996;DHT22;2012;49.794;9.722;2023-02-28T11:56:55;4.00;99.40
3996;DHT22;2012;49.794;9.722;2023-02-28T11:59:49;3.90;99.50
3996;DHT22;2012;49.794;9.722;2023-02-28T12:05:09;4.20;99.50
3996;DHT22;2012;49.794;9.722;2023-02-28T12:07:55;4.50;99.90
3996;DHT22;2012;49.794;9.722;2023-02-28T12:13:41;4.30;98.80
3996;DHT22;2012;49.794;9.722;2023-02-28T12:19:12;4.50;99.00
3996;DHT22;2012;49.794;9.722;2023-02-28T12:22:12;4.50;99.20
3996;DHT22;2012;49.794;9.722;2023-02-28T12:27:51;4.40;97.90
3996;DHT22;2012;49.794;9.722;2023-02-28T12:30:24;4.30;97.70
3996;DHT22;2012;49.794;9.722;2023-02-28T12:33:03;4.30;96.90
3996;DHT22;2012;49.794;9.722;2023-02-28T12:35:52;4.30;97.20
3996;DHT22;2012;49.794;9.722;2023-02-28T12:38:28;4.50;98.00
3996;DHT22;2012;49.794;9.722;2023-02-28T12:41:23;4.50;97.00
3996;DHT22;2012;49.794;9.722;2023-02-28T12:43:57;4.70;96.80
3996;DHT22;2012;49.794;9.722;2023-02-28T12:46:37;4.80;97.20
3996;DHT22;2012;49.794;9.722;2023-02-28T12:49:09;4.90;96.80
3996;DHT22;2012;49.794;9.722;2023-02-28T12:51:38;5.20;96.80
3996;DHT22;2012;49.794;9.722;2023-02-28T12:59:29;5.60;94.10
3996;DHT22;2012;49.794;9.722;2023-02-28T13:10:51;6.10;93.70
3996;DHT22;2012;49.794;9.722;2023-02-28T13:13:28;6.20;93.40
3996;DHT22;2012;49.794;9.722;2023-02-28T13:16:04;6.40;92.80
3996;DHT22;2012;49.794;9.722;2023-02-28T13:18:36;6.50;92.50
3996;DHT22;2012;49.794;9.722;2023-02-28T13:21:06;6.40;92.40
3996;DHT22;2012;49.794;9.722;2023-02-28T13:26:17;6.60;92.10
3996;DHT22;2012;49.794;9.722;2023-02-28T13:29:02;6.40;91.70
3996;DHT22;2012;49.794;9.722;2023-02-28T13:31:30;6.60;91.30
3996;DHT22;2012;49.794;9.722;2023-02-28T13:34:14;6.70;91.00
3996;DHT22;2012;49.794;9.722;2023-02-28T13:36:41;7.00;90.40
3996;DHT22;2012;49.794;9.722;2023-02-28T13:42:34;6.90;90.20
3996;DHT22;2012;49.794;9.722;2023-02-28T13:47:34;7.20;88.90
3996;DHT22;2012;49.794;9.722;2023-02-28T13:55:34;7.30;87.70
3996;DHT22;2012;49.794;9.722;2023-02-28T14:01:20;7.50;87.10
3996;DHT22;2012;49.794;9.722;2023-02-28T14:06:28;7.50;86.10
3996;DHT22;2012;49.794;9.722;2023-02-28T14:09:01;7.90;87.10
3996;DHT22;2012;49.794;9.722;2023-02-28T14:11:33;7.50;86.20
3996;DHT22;2012;49.794;9.722;2023-02-28T14:14:01;7.50;85.80
3996;DHT22;2012;49.794;9.722;2023-02-28T14:16:46;7.80;85.80
3996;DHT22;2012;49.794;9.722;2023-02-28T14:19:26;7.90;86.10
3996;DHT22;2012;49.794;9.722;2023-02-28T14:24:59;7.70;85.00
3996;DHT22;2012;49.794;9.722;2023-02-28T14:27:58;7.70;84.30
3996;DHT22;2012;49.794;9.722;2023-02-28T14:36:07;8.80;91.00
3996;DHT22;2012;49.794;9.722;2023-02-28T14:38:49;9.70;92.70
3996;DHT22;2012;49.794;9.722;2023-02-28T14:44:11;9.70;89.00
3996;DHT22;2012;49.794;9.722;2023-02-28T14:46:40;10.40;91.00
3996;DHT22;2012;49.794;9.722;2023-02-28T14:51:45;10.50;87.30
3996;DHT22;2012;49.794;9.722;2023-02-28T14:54:16;10.20;84.10
3996;DHT22;2012;49.794;9.722;2023-02-28T14:56:43;10.30;85.60
3996;DHT22;2012;49.794;9.722;2023-02-28T14:59:31;10.40;83.60
3996;DHT22;2012;49.794;9.722;2023-02-28T15:02:19;11.00;87.50
3996;DHT22;2012;49.794;9.722;2023-02-28T15:05:00;10.20;77.70
3996;DHT22;2012;49.794;9.722;2023-02-28T15:07:28;8.80;78.10
3996;DHT22;2012;49.794;9.722;2023-02-28T15:10:17;8.60;79.00
3996;DHT22;2012;49.794;9.722;2023-02-28T15:13:17;8.30;80.10
3996;DHT22;2012;49.794;9.722;2023-02-28T15:16:04;8.30;81.00
3996;DHT22;2012;49.794;9.722;2023-02-28T15:18:48;8.10;81.90
3996;DHT22;2012;49.794;9.722;2023-02-28T15:21:21;8.00;81.00
3996;DHT22;2012;49.794;9.722;2023-02-28T15:23:56;7.50;81.70
3996;DHT22;2012;49.794;9.722;2023-02-28T15:26:28;7.40;81.80
3996;DHT22;2012;49.794;9.722;2023-02-28T15:29:03;7.10;82.60
3996;DHT22;2012;49.794;9.722;2023-02-28T15:31:39;7.00;82.70
3996;DHT22;2012;49.794;9.722;2023-02-28T15:37:24;6.80;83.10
3996;DHT22;2012;49.794;9.722;2023-02-28T15:39:54;6.90;83.50
3996;DHT22;2012;49.794;9.722;2023-02-28T15:42:26;6.90;83.50
3996;DHT22;2012;49.794;9.722;2023-02-28T15:44:56;6.90;84.20
3996;DHT22;2012;49.794;9.722;2023-02-28T15:47:26;6.90;83.50
3996;DHT22;2012;49.794;9.722;2023-02-28T15:49:59;6.80;84.00
3996;DHT22;2012;49.794;9.722;2023-02-28T15:54:55;6.50;84.60
3996;DHT22;2012;49.794;9.722;2023-02-28T15:57:27;6.40;85.90
3996;DHT22;2012;49.794;9.722;2023-02-28T16:00:00;6.30;86.60
3996;DHT22;2012;49.794;9.722;2023-02-28T16:02:32;6.20;86.50
3996;DHT22;2012;49.794;9.722;2023-02-28T16:05:00;6.20;86.40
3996;DHT22;2012;49.794;9.722;2023-02-28T16:07:28;6.10;87.20
3996;DHT22;2012;49.794;9.722;2023-02-28T16:09:55;6.20;87.10
3996;DHT22;2012;49.794;9.722;2023-02-28T16:12:26;6.10;86.50
3996;DHT22;2012;49.794;9.722;2023-02-28T16:14:54;6.10;86.90
3996;DHT22;2012;49.794;9.722;2023-02-28T16:17:24;6.10;87.50
3996;DHT22;2012;49.794;9.722;2023-02-28T16:19:52;6.00;87.70
3996;DHT22;2012;49.794;9.722;2023-02-28T16:22:20;6.00;89.90
3996;DHT22;2012;49.794;9.722;2023-02-28T16:24:46;5.80;89.20
3996;DHT22;2012;49.794;9.722;2023-02-28T16:27:21;5.70;90.00
3996;DHT22;2012;49.794;9.722;2023-02-28T16:29:51;5.50;90.00
3996;DHT22;2012;49.794;9.722;2023-02-28T16:32:18;5.40;90.40
3996;DHT22;2012;49.794;9.722;2023-02-28T16:34:45;5.50;90.50
3996;DHT22;2012;49.794;9.722;2023-02-28T16:37:14;5.40;90.50
3996;DHT22;2012;49.794;9.722;2023-02-28T16:39:42;5.30;90.80
3996;DHT22;2012;49.794;9.722;2023-02-28T16:42:25;5.40;91.10
3996;DHT22;2012;49.794;9.722;2023-02-28T16:44:54;5.30;91.50
3996;DHT22;2012;49.794;9.722;2023-02-28T16:47:21;5.10;92.80
3996;DHT22;2012;49.794;9.722;2023-02-28T16:49:48;5.00;93.40
3996;DHT22;2012;49.794;9.722;2023-02-28T16:52:15;4.80;93.80
3996;DHT22;2012;49.794;9.722;2023-02-28T16:54:42;4.80;94.30
3996;DHT22;2012;49.794;9.722;2023-02-28T16:57:35;4.60;95.40
3996;DHT22;2012;49.794;9.722;2023-02-28T17:00:04;4.50;96.10
3996;DHT22;2012;49.794;9.722;2023-02-28T17:02:30;4.40;96.50
3996;DHT22;2012;49.794;9.722;2023-02-28T17:04:58;4.20;97.00
3996;DHT22;2012;49.794;9.722;2023-02-28T17:07:24;4.10;96.80
3996;DHT22;2012;49.794;9.722;2023-02-28T17:09:51;4.00;97.40
3996;DHT22;2012;49.794;9.722;2023-02-28T17:12:18;4.00;97.30
3996;DHT22;2012;49.794;9.722;2023-02-28T17:14:45;4.00;97.40
3996;DHT22;2012;49.794;9.722;2023-02-28T17:17:20;4.00;97.40
3996;DHT22;2012;49.794;9.722;2023-02-28T17:19:47;4.00;97.40
3996;DHT22;2012;49.794;9.722;2023-02-28T17:22:14;3.90;98.20
3996;DHT22;2012;49.794;9.722;2023-02-28T17:24:41;3.90;98.20
3996;DHT22;2012;49.794;9.722;2023-02-28T17:27:12;3.60;98.70
3996;DHT22;2012;49.794;9.722;2023-02-28T17:29:39;3.70;98.90
3996;DHT22;2012;49.794;9.722;2023-02-28T17:32:06;3.50;99.30
3996;DHT22;2012;49.794;9.722;2023-02-28T17:34:43;3.60;99.40
3996;DHT22;2012;49.794;9.722;2023-02-28T17:37:10;3.40;99.60
3996;DHT22;2012;49.794;9.722;2023-02-28T17:39:37;3.40;99.90
3996;DHT22;2012;49.794;9.722;2023-02-28T17:42:04;3.20;99.90
3996;DHT22;2012;49.794;9.722;2023-02-28T17:44:31;3.20;99.90
3996;DHT22;2012;49.794;9.722;2023-02-28T17:46:58;2.90;99.90
3996;DHT22;2012;49.794;9.722;2023-02-28T17:49:26;3.00;99.90
3996;DHT22;2012;49.794;9.722;2023-02-28T17:51:53;2.90;99.90
3996;DHT22;2012;49.794;9.722;2023-02-28T17:54:20;2.80;99.90
3996;DHT22;2012;49.794;9.722;2023-02-28T17:56:46;3.10;99.90
3996;DHT22;2012;49.794;9.722;2023-02-28T17:59:13;2.90;99.90
3996;DHT22;2012;49.794;9.722;2023-02-28T18:01:40;2.80;99.90
3996;DHT22;2012;49.794;9.722;2023-02-28T18:04:07;2.80;99.90
3996;DHT22;2012;49.794;9.722;2023-02-28T18:06:36;2.60;99.90
3996;DHT22;2012;49.794;9.722;2023-02-28T18:09:17;2.50;99.90
3996;DHT22;2012;49.794;9.722;2023-02-28T18:11:44;2.70;99.90
3996;DHT22;2012;49.794;9.722;2023-02-28T18:14:18;2.60;99.90
3996;DHT22;2012;49.794;9.722;2023-02-28T18:16:45;2.50;99.90
3996;DHT22;2012;49.794;9.722;2023-02-28T18:19:13;2.30;99.90
3996;DHT22;2012;49.794;9.722;2023-02-28T18:21:44;2.50;99.90
3996;DHT22;2012;49.794;9.722;2023-02-28T18:24:12;2.50;99.90
3996;DHT22;2012;49.794;9.722;2023-02-28T18:26:39;2.50;99.90
3996;DHT22;2012;49.794;9.722;2023-02-28T18:29:07;2.30;99.90
3996;DHT22;2012;49.794;9.722;2023-02-28T18:31:34;2.40;99.90
3996;DHT22;2012;49.794;9.722;2023-02-28T18:34:01;2.40;99.90
3996;DHT22;2012;49.794;9.722;2023-02-28T18:36:27;2.40;99.90
3996;DHT22;2012;49.794;9.722;2023-02-28T18:38:55;2.70;99.90